Time;durP1;ratioP1;P1;durP2;ratioP2;P2;SDS_P1;SDS_P2;PMS_P1;PMS_P2;Temp;Humidity;BMP_temperature;BMP_pressure;BME280_temperature;BME280_humidity;BME280_pressure;Samples;Min_cycle;Max_cycle;Signal;HPM_P1;HPM_P2
2024/01/11 00:01:18;;;;;;;11.35;10.38;;;;;;;-4.13;100.00;101880.66;5034614;28;20030;-75
2024/01/11 00:03:43;;;;;;;0.45;0.45;;;;;;;-4.90;100.00;101764.16;5026484;28;20544;-75
2024/01/11 00:06:09;;;;;;;0.55;0.55;;;;;;;-4.73;100.00;101806.56;5020125;28;20116;-75
2024/01/11 00:08:34;;;;;;;1.67;1.58;;;;;;;-4.34;100.00;101858.41;5026815;28;20060;-77
2024/01/11 00:11:00;;;;;;;0.40;0.40;;;;;;;-4.51;100.00;101805.78;5029974;28;20033;-75
2024/01/11 00:13:25;;;;;;;0.70;0.70;;;;;;;-4.16;100.00;101864.16;5028763;28;20045;-76
2024/01/11 00:15:52;;;;;;;0.50;0.50;;;;;;;-4.15;100.00;101868.50;5030538;28;20390;-77
2024/01/11 00:18:17;;;;;;;0.60;0.60;;;;;;;-4.16;100.00;101869.28;5019600;28;20050;-76
2024/01/11 00:20:43;;;;;;;0.60;0.50;;;;;;;-4.29;100.00;101844.31;5030148;28;20060;-75
2024/01/11 00:23:09;;;;;;;7.82;5.68;;;;;;;-4.69;100.00;101751.38;5021099;28;20432;-76
2024/01/11 00:25:35;;;;;;;1.23;1.15;;;;;;;-4.84;100.00;101742.44;5020958;28;20043;-77
2024/01/11 00:28:01;;;;;;;14.30;13.35;;;;;;;-4.98;100.00;101770.31;5016217;28;20045;-77
2024/01/11 00:30:27;;;;;;;4.75;4.32;;;;;;;-4.33;100.00;101852.50;5022185;28;20046;-75
2024/01/11 00:32:52;;;;;;;0.60;0.60;;;;;;;-4.35;100.00;101867.75;5021426;28;20179;-75
2024/01/11 00:35:18;;;;;;;2.20;2.10;;;;;;;-4.54;100.00;101829.47;5015382;28;20135;-76
2024/01/11 00:37:43;;;;;;;0.40;0.40;;;;;;;-4.81;100.00;101774.28;5028888;28;20256;-77
2024/01/11 00:40:09;;;;;;;7.00;6.63;;;;;;;-4.67;100.00;101795.91;5019132;28;20409;-76
2024/01/11 00:42:35;;;;;;;0.40;0.40;;;;;;;-4.34;100.00;101860.97;5018781;28;20243;-74
2024/01/11 00:45:01;;;;;;;0.70;0.60;;;;;;;-4.42;100.00;101860.34;5018881;28;20584;-75
2024/01/11 00:47:27;;;;;;;0.40;0.40;;;;;;;-4.58;100.00;101844.47;5013962;28;20049;-75
2024/01/11 00:49:52;;;;;;;3.50;3.30;;;;;;;-4.65;100.00;101847.28;5018188;28;20042;-75
2024/01/11 00:52:18;;;;;;;0.50;0.50;;;;;;;-4.39;100.00;101840.09;5015045;28;20121;-75
2024/01/11 00:54:43;;;;;;;0.60;0.60;;;;;;;-4.64;100.00;101815.75;5017304;28;20051;-74
2024/01/11 00:57:09;;;;;;;0.73;0.73;;;;;;;-4.46;100.00;101838.69;5018069;28;20106;-75
2024/01/11 00:59:34;;;;;;;1.15;1.05;;;;;;;-4.43;100.00;101830.34;5018620;28;20136;-75
2024/01/11 01:02:00;;;;;;;0.75;0.70;;;;;;;-5.21;100.00;101704.41;5016887;28;20120;-75
2024/01/11 01:04:25;;;;;;;20.40;18.55;;;;;;;-4.69;100.00;101798.34;5022699;28;20112;-75
2024/01/11 01:06:51;;;;;;;0.40;0.40;;;;;;;-5.52;100.00;101718.84;5021591;28;21026;-75
2024/01/11 01:09:17;;;;;;;1.65;1.55;;;;;;;-5.91;100.00;101706.97;5016042;28;20564;-76
2024/01/11 01:11:42;;;;;;;0.50;0.40;;;;;;;-4.84;100.00;101821.78;5017278;28;20081;-75
2024/01/11 01:14:08;;;;;;;0.50;0.47;;;;;;;-4.87;100.00;101776.31;5020308;28;20176;-75
2024/01/11 01:16:33;;;;;;;0.40;0.38;;;;;;;-4.81;100.00;101804.13;5011477;28;20026;-75
2024/01/11 01:18:59;;;;;;;2.30;2.20;;;;;;;-4.77;100.00;101789.16;4989339;28;20124;-75
2024/01/11 01:21:24;;;;;;;0.98;0.95;;;;;;;-4.66;100.00;101787.47;5026398;28;20104;-76
2024/01/11 01:23:51;;;;;;;3.42;3.30;;;;;;;-5.77;100.00;101657.06;5015928;28;20072;-75
2024/01/11 01:26:17;;;;;;;9.20;8.68;;;;;;;-5.43;100.00;101676.16;5026892;28;20037;-76
2024/01/11 01:28:42;;;;;;;5.10;4.88;;;;;;;-4.74;100.00;101775.69;5020969;28;20130;-74
2024/01/11 01:31:08;;;;;;;0.40;0.40;;;;;;;-4.75;100.00;101756.88;5025973;28;20045;-76
2024/01/11 01:33:33;;;;;;;1.30;1.20;;;;;;;-5.18;100.00;101667.97;5032143;28;20123;-76
2024/01/11 01:35:59;;;;;;;0.40;0.40;;;;;;;-4.73;100.00;101765.59;5014055;28;20066;-75
2024/01/11 01:38:24;;;;;;;10.35;8.05;;;;;;;-4.50;100.00;101794.75;5029895;28;20124;-74
2024/01/11 01:40:50;;;;;;;0.40;0.40;;;;;;;-4.81;100.00;101753.81;5031109;28;20035;-75
2024/01/11 01:43:16;;;;;;;0.50;0.50;;;;;;;-4.77;100.00;101750.75;5028494;28;20025;-75
2024/01/11 01:45:41;;;;;;;14.98;14.23;;;;;;;-5.47;100.00;101651.09;5026861;28;20048;-75
2024/01/11 01:48:07;;;;;;;0.40;0.30;;;;;;;-4.93;100.00;101737.44;5021529;28;20053;-75
2024/01/11 01:50:33;;;;;;;0.40;0.40;;;;;;;-4.72;100.00;101759.69;5020793;28;20528;-75
2024/01/11 01:53:00;;;;;;;0.85;0.85;;;;;;;-5.07;100.00;101669.75;5012000;28;20025;-75
2024/01/11 01:55:27;;;;;;;30.85;27.70;;;;;;;-5.01;100.00;101720.53;5024376;28;20090;-75
2024/01/11 01:57:53;;;;;;;7.03;6.63;;;;;;;-4.91;100.00;101720.56;5019552;28;20064;-75
2024/01/11 02:00:19;;;;;;;1.13;1.05;;;;;;;-4.71;100.00;101728.19;5023956;28;20053;-75
2024/01/11 02:02:49;;;;;;;6.15;5.85;;;;;;;-4.75;100.00;101727.84;5025720;28;20168;-76
2024/01/11 02:05:16;;;;;;;0.40;0.40;;;;;;;-5.00;100.00;101709.53;5020162;28;20053;-77
2024/01/11 02:07:42;;;;;;;0.43;0.43;;;;;;;-4.74;100.00;101727.94;5023789;28;20064;-75
2024/01/11 02:10:08;;;;;;;0.50;0.50;;;;;;;-5.60;100.00;101585.22;5019214;28;20049;-76
2024/01/11 02:12:37;;;;;;;0.60;0.60;;;;;;;-6.09;100.00;101447.41;5021985;28;20045;-76
2024/01/11 02:15:03;;;;;;;1.48;1.38;;;;;;;-4.96;100.00;101656.19;5025314;28;20131;-75
2024/01/11 02:17:30;;;;;;;0.50;0.50;;;;;;;-4.91;100.00;101710.31;5021619;28;20071;-77
2024/01/11 02:19:55;;;;;;;1.42;1.35;;;;;;;-6.05;100.00;101544.88;5028746;28;20771;-75
2024/01/11 02:22:30;;;;;;;15.55;11.35;;;;;;;-5.31;100.00;101613.22;5027730;28;20078;-75
2024/01/11 02:24:57;;;;;;;0.98;0.98;;;;;;;-5.45;100.00;101577.06;5018655;28;20584;-75
2024/01/11 02:27:23;;;;;;;2.25;1.30;;;;;;;-4.88;100.00;101651.69;5024786;28;20053;-76
2024/01/11 02:29:48;;;;;;;0.50;0.50;;;;;;;-5.40;100.00;101588.56;5015057;28;20099;-77
2024/01/11 02:32:14;;;;;;;2.47;2.28;;;;;;;-5.12;100.00;101589.16;5022927;28;20056;-76
2024/01/11 02:34:40;;;;;;;1.40;1.30;;;;;;;-5.26;100.00;101574.34;5016367;28;20099;-77
2024/01/11 02:37:06;;;;;;;13.95;12.60;;;;;;;-4.82;100.00;101669.19;5028592;28;20136;-77
2024/01/11 02:39:31;;;;;;;4.22;4.03;;;;;;;-4.85;100.00;101648.47;5019807;28;20056;-77
2024/01/11 02:41:58;;;;;;;4.35;4.15;;;;;;;-5.39;100.00;101560.53;5024830;28;20464;-77
2024/01/11 02:44:24;;;;;;;12.95;12.20;;;;;;;-4.86;100.00;101642.47;5028701;28;20041;-75
2024/01/11 02:46:50;;;;;;;5.90;5.63;;;;;;;-5.70;100.00;101480.44;5033793;28;20124;-77
2024/01/11 02:49:15;;;;;;;0.93;0.93;;;;;;;-5.87;100.00;101458.59;5026952;28;20089;-76
2024/01/11 02:51:41;;;;;;;2.40;2.20;;;;;;;-5.14;100.00;101555.78;5029064;28;20073;-77
2024/01/11 02:54:06;;;;;;;0.50;0.50;;;;;;;-5.28;100.00;101537.53;5035554;28;20109;-76
2024/01/11 02:56:32;;;;;;;6.80;6.22;;;;;;;-4.68;100.00;101659.31;5036535;28;20080;-76
2024/01/11 02:58:58;;;;;;;0.50;0.50;;;;;;;-4.75;100.00;101649.38;5024622;28;20057;-76
2024/01/11 03:01:23;;;;;;;0.40;0.40;;;;;;;-4.69;100.00;101654.97;5028354;28;20026;-76
2024/01/11 03:03:49;;;;;;;0.60;0.50;;;;;;;-4.62;100.00;101645.22;5026122;28;20091;-75
2024/01/11 03:06:14;;;;;;;16.92;15.85;;;;;;;-4.59;100.00;101650.59;5027743;28;20053;-76
2024/01/11 03:08:40;;;;;;;0.82;0.82;;;;;;;-5.23;100.00;101580.59;5018973;28;20053;-76
2024/01/11 03:11:05;;;;;;;0.60;0.60;;;;;;;-4.99;100.00;101608.97;5030446;28;20045;-76
2024/01/11 03:13:31;;;;;;;1.15;1.15;;;;;;;-4.70;100.00;101648.06;5029143;28;20421;-76
2024/01/11 03:15:57;;;;;;;0.40;0.40;;;;;;;-4.89;100.00;101627.75;5025384;28;20041;-76
2024/01/11 03:18:22;;;;;;;3.25;3.03;;;;;;;-5.49;100.00;101527.31;5030552;28;20049;-77
2024/01/11 03:20:48;;;;;;;3.05;2.90;;;;;;;-5.43;100.00;101526.91;5029769;28;20045;-76
2024/01/11 03:23:13;;;;;;;0.40;0.40;;;;;;;-4.91;100.00;101590.03;5014463;28;20524;-76
2024/01/11 03:25:39;;;;;;;0.50;0.50;;;;;;;-5.25;100.00;101528.41;5028908;28;20113;-76
2024/01/11 03:28:05;;;;;;;0.60;0.60;;;;;;;-4.62;100.00;101632.41;5032353;28;20285;-75
2024/01/11 03:30:30;;;;;;;0.80;0.80;;;;;;;-5.17;100.00;101539.28;5029954;28;20063;-76
2024/01/11 03:32:56;;;;;;;0.40;0.40;;;;;;;-4.74;100.00;101628.09;5015318;28;20142;-75
2024/01/11 03:35:21;;;;;;;11.20;10.52;;;;;;;-4.94;100.00;101595.78;5024571;28;20045;-75
2024/01/11 03:37:47;;;;;;;2.90;2.80;;;;;;;-4.71;100.00;101618.09;5025972;28;20044;-75
2024/01/11 03:40:14;;;;;;;0.40;0.40;;;;;;;-4.92;100.00;101586.56;5021944;28;20037;-76
2024/01/11 03:42:39;;;;;;;0.57;0.57;;;;;;;-4.72;100.00;101630.78;5017500;28;20045;-75
2024/01/11 03:45:06;;;;;;;0.43;0.43;;;;;;;-5.35;100.00;101508.00;5018553;28;20061;-75
2024/01/11 03:47:32;;;;;;;0.32;0.30;;;;;;;-4.57;100.00;101626.00;5020552;28;20579;-76
2024/01/11 03:49:57;;;;;;;0.40;0.40;;;;;;;-5.34;100.00;101512.31;5026527;28;20037;-75
2024/01/11 03:52:23;;;;;;;13.60;12.75;;;;;;;-4.74;100.00;101614.41;5030474;28;20029;-75
2024/01/11 03:54:49;;;;;;;0.40;0.40;;;;;;;-4.75;100.00;101587.03;5028703;28;20049;-76
2024/01/11 03:57:15;;;;;;;0.40;0.40;;;;;;;-4.76;100.00;101608.25;5025944;28;20523;-78
2024/01/11 03:59:41;;;;;;;0.40;0.40;;;;;;;-5.45;100.00;101490.13;5032428;28;20049;-77
2024/01/11 04:02:07;;;;;;;2.38;2.28;;;;;;;-5.67;100.00;101536.03;5015629;28;20820;-76
2024/01/11 04:04:33;;;;;;;2.15;2.05;;;;;;;-5.59;100.00;101486.44;5027007;28;20397;-76
2024/01/11 04:06:58;;;;;;;0.50;0.50;;;;;;;-4.84;100.00;101593.97;5021652;28;20052;-75
2024/01/11 04:09:24;;;;;;;2.58;2.45;;;;;;;-4.70;100.00;101593.41;5015589;28;20095;-76
2024/01/11 04:11:49;;;;;;;7.03;6.63;;;;;;;-4.79;100.00;101585.00;5014197;28;20107;-75
2024/01/11 04:14:15;;;;;;;0.73;0.65;;;;;;;-4.89;100.00;101591.94;5035999;28;20045;-75
2024/01/11 04:16:43;;;;;;;1.85;1.75;;;;;;;-5.26;100.00;101508.75;5026951;28;20059;-76
2024/01/11 04:19:10;;;;;;;6.03;5.60;;;;;;;-5.38;100.00;101488.19;5019531;28;20476;-77
2024/01/11 04:21:38;;;;;;;0.70;0.70;;;;;;;-4.84;100.00;101596.53;5017449;28;20462;-77
2024/01/11 04:24:04;;;;;;;2.05;1.95;;;;;;;-5.44;100.00;101466.31;4994989;28;20568;-76
2024/01/11 04:26:29;;;;;;;0.40;0.40;;;;;;;-5.60;100.00;101464.19;5015055;28;20059;-75
2024/01/11 04:28:57;;;;;;;11.00;10.45;;;;;;;-5.05;100.00;101555.63;5019192;28;20096;-76
2024/01/11 04:31:24;;;;;;;1.75;1.65;;;;;;;-4.85;100.00;101579.38;5017601;28;20567;-76
2024/01/11 04:33:49;;;;;;;0.43;0.43;;;;;;;-6.00;100.00;101385.19;5018049;28;20064;-75
2024/01/11 04:36:15;;;;;;;2.28;2.17;;;;;;;-5.04;100.00;101559.06;5014805;28;20553;-76
2024/01/11 04:38:40;;;;;;;0.60;0.60;;;;;;;-4.92;100.00;101584.00;5013396;28;20042;-76
2024/01/11 04:41:10;;;;;;;1.25;1.25;;;;;;;-4.91;100.00;101577.22;5019088;28;20029;-75
2024/01/11 04:43:43;;;;;;;0.50;0.50;;;;;;;-4.92;100.00;101586.56;5021989;28;20069;-75
2024/01/11 04:46:22;;;;;;;0.95;0.95;;;;;;;-5.02;100.00;101596.81;5016678;28;20180;-75
2024/01/11 04:48:49;;;;;;;6.25;5.93;;;;;;;-5.52;100.00;101484.50;5016045;28;20049;-76
2024/01/11 04:51:16;;;;;;;1.75;1.25;;;;;;;-4.89;100.00;101565.44;5018074;28;20053;-76
2024/01/11 04:53:44;;;;;;;0.50;0.50;;;;;;;-5.16;100.00;101541.06;5019352;28;20545;-75
2024/01/11 04:56:11;;;;;;;10.75;9.95;;;;;;;-5.30;100.00;101502.47;5021259;28;20050;-76
2024/01/11 04:58:40;;;;;;;2.63;2.42;;;;;;;-5.66;100.00;101497.81;5027103;28;20048;-75
2024/01/11 05:01:06;;;;;;;2.15;2.05;;;;;;;-5.06;100.00;101581.09;5015333;28;20057;-75
2024/01/11 05:03:32;;;;;;;10.50;9.75;;;;;;;-5.60;100.00;101487.19;5019106;28;20126;-74
2024/01/11 05:05:58;;;;;;;12.60;11.70;;;;;;;-5.75;100.00;101456.16;5013067;28;20057;-77
2024/01/11 05:08:26;;;;;;;0.50;0.50;;;;;;;-5.00;100.00;101556.88;5012427;28;20472;-76
2024/01/11 05:10:51;;;;;;;0.40;0.40;;;;;;;-5.45;100.00;101483.34;5021882;28;20497;-75
2024/01/11 05:13:17;;;;;;;0.43;0.43;;;;;;;-5.03;100.00;101551.53;5029645;28;20107;-76
2024/01/11 05:15:43;;;;;;;0.50;0.50;;;;;;;-4.97;100.00;101576.72;5033394;28;20048;-76
2024/01/11 05:18:09;;;;;;;0.40;0.40;;;;;;;-5.57;100.00;101470.47;5022778;28;20053;-76
2024/01/11 05:20:35;;;;;;;14.65;13.73;;;;;;;-6.68;100.00;101268.97;5014138;28;20045;-77
2024/01/11 05:23:00;;;;;;;3.40;3.20;;;;;;;-5.02;100.00;101578.91;5032451;28;20024;-76
2024/01/11 05:25:31;;;;;;;0.52;0.52;;;;;;;-5.79;100.00;101466.91;5029987;28;20033;-76
2024/01/11 05:27:56;;;;;;;17.88;16.90;;;;;;;-5.03;100.00;101555.72;5026232;28;20041;-75
2024/01/11 05:30:22;;;;;;;1.58;1.48;;;;;;;-5.19;100.00;101531.47;5019123;28;20056;-76
2024/01/11 05:32:47;;;;;;;3.40;2.70;;;;;;;-5.27;100.00;101511.16;5017190;28;20473;-76
2024/01/11 05:35:13;;;;;;;0.45;0.45;;;;;;;-5.55;100.00;101452.66;5025841;28;20081;-76
2024/01/11 05:37:39;;;;;;;7.75;7.32;;;;;;;-5.75;100.00;101428.94;5018062;28;20126;-76
2024/01/11 05:40:05;;;;;;;0.80;0.80;;;;;;;-5.85;100.00;101436.63;5009574;28;20574;-76
2024/01/11 05:42:31;;;;;;;3.80;3.60;;;;;;;-5.33;100.00;101544.81;5018174;28;20057;-76
2024/01/11 05:44:56;;;;;;;0.40;0.40;;;;;;;-4.88;100.00;101575.78;5020016;28;20045;-78
2024/01/11 05:47:22;;;;;;;7.88;7.32;;;;;;;-5.32;100.00;101480.97;5023957;28;20064;-77
2024/01/11 05:49:48;;;;;;;4.65;4.45;;;;;;;-5.28;100.00;101474.47;5021576;28;20029;-78
2024/01/11 05:52:13;;;;;;;0.63;0.63;;;;;;;-5.39;100.00;101448.00;5018746;28;20091;-76
2024/01/11 05:54:39;;;;;;;0.55;0.50;;;;;;;-4.91;100.00;101526.03;5019318;28;20042;-74
2024/01/11 05:57:04;;;;;;;10.20;9.65;;;;;;;-4.79;100.00;101552.59;5014286;28;20826;-75
2024/01/11 05:59:30;;;;;;;2.80;1.73;;;;;;;-4.98;100.00;101528.88;5019831;28;21153;-74
2024/01/11 06:01:59;;;;;;;4.82;4.57;;;;;;;-4.69;100.00;101555.09;5018231;28;20537;-76
2024/01/11 06:04:25;;;;;;;2.00;1.90;;;;;;;-5.25;100.00;101461.91;5019788;28;20057;-75
2024/01/11 06:06:52;;;;;;;0.80;0.80;;;;;;;-5.61;100.00;101398.50;5005729;28;20391;-75
2024/01/11 06:09:18;;;;;;;3.63;3.42;;;;;;;-5.54;100.00;101444.25;4996523;28;20052;-75
2024/01/11 06:11:43;;;;;;;0.85;0.75;;;;;;;-4.80;100.00;101540.59;4995875;28;20056;-75
2024/01/11 06:14:09;;;;;;;3.90;3.70;;;;;;;-4.81;100.00;101525.97;5001937;28;20153;-75
2024/01/11 06:16:34;;;;;;;3.55;3.42;;;;;;;-4.83;100.00;101535.19;5019296;28;20041;-76
2024/01/11 06:19:00;;;;;;;0.40;0.40;;;;;;;-5.35;100.00;101433.81;5022699;28;20072;-76
2024/01/11 06:21:25;;;;;;;3.08;2.92;;;;;;;-4.77;100.00;101514.34;5026386;28;20127;-75
2024/01/11 06:23:51;;;;;;;0.40;0.40;;;;;;;-5.00;100.00;101472.44;5020454;28;20050;-74
2024/01/11 06:26:17;;;;;;;5.00;4.70;;;;;;;-4.57;100.00;101542.38;5010373;28;20053;-75
2024/01/11 06:28:42;;;;;;;0.52;0.52;;;;;;;-4.61;100.00;101542.00;5020828;28;20025;-74
2024/01/11 06:31:10;;;;;;;12.48;11.57;;;;;;;-4.74;100.00;101528.25;5027444;28;20060;-75
2024/01/11 06:33:36;;;;;;;1.95;1.85;;;;;;;-4.65;100.00;101509.28;5028999;28;20057;-75
2024/01/11 06:36:09;;;;;;;5.43;2.80;;;;;;;-4.95;100.00;101468.56;5011158;28;20053;-76
2024/01/11 06:38:35;;;;;;;0.30;0.30;;;;;;;-4.86;100.00;101475.22;5036726;28;20053;-76
2024/01/11 06:41:00;;;;;;;0.40;0.40;;;;;;;-4.99;100.00;101435.81;5025988;28;20033;-76
2024/01/11 06:43:26;;;;;;;2.83;2.67;;;;;;;-4.58;100.00;101524.34;5032498;28;20029;-75
2024/01/11 06:45:52;;;;;;;0.50;0.50;;;;;;;-4.63;100.00;101472.78;5037608;28;20081;-75
2024/01/11 06:48:18;;;;;;;1.27;1.05;;;;;;;-4.30;100.00;101546.22;5031422;28;20140;-76
2024/01/11 06:50:44;;;;;;;0.40;0.40;;;;;;;-4.20;100.00;101535.00;5025413;28;20065;-74
2024/01/11 06:53:10;;;;;;;5.88;5.57;;;;;;;-4.21;100.00;101540.00;5033034;28;20041;-73
2024/01/11 06:55:36;;;;;;;4.22;3.92;;;;;;;-5.09;100.00;101406.06;5027412;28;20504;-74
2024/01/11 06:58:01;;;;;;;9.55;9.02;;;;;;;-4.24;100.00;101520.16;5028275;28;20037;-75
2024/01/11 07:00:27;;;;;;;0.63;0.63;;;;;;;-4.34;100.00;101521.13;5026946;28;20574;-75
2024/01/11 07:02:53;;;;;;;0.50;0.50;;;;;;;-4.86;100.00;101426.56;5020371;28;20041;-76
2024/01/11 07:05:19;;;;;;;2.25;2.08;;;;;;;-4.07;100.00;101541.97;5019832;28;20057;-75
2024/01/11 07:07:45;;;;;;;10.48;9.75;;;;;;;-4.66;100.00;101421.31;5024925;28;20052;-76
2024/01/11 07:10:10;;;;;;;0.47;0.47;;;;;;;-4.04;100.00;101530.28;5029957;28;20057;-75
2024/01/11 07:12:37;;;;;;;11.68;10.98;;;;;;;-4.36;100.00;101444.94;5036866;28;20103;-74
2024/01/11 07:15:04;;;;;;;0.88;0.88;;;;;;;-4.34;100.00;101438.25;5028997;28;20745;-75
2024/01/11 07:17:30;;;;;;;1.05;1.05;;;;;;;-3.85;100.00;101521.44;5029969;28;20087;-74
2024/01/11 07:19:55;;;;;;;0.43;0.43;;;;;;;-4.28;100.00;101414.00;5024305;28;20025;-75
2024/01/11 07:22:21;;;;;;;0.40;0.40;;;;;;;-3.55;100.00;101521.94;5026854;28;20087;-75
2024/01/11 07:24:46;;;;;;;0.50;0.50;;;;;;;-3.65;100.00;101503.31;5012027;28;20173;-76
2024/01/11 07:27:12;;;;;;;24.23;9.95;;;;;;;-3.60;100.00;101493.38;5025884;28;20049;-74
2024/01/11 07:29:38;;;;;;;0.82;0.77;;;;;;;-3.63;100.00;101500.84;5032969;28;20061;-75
2024/01/11 07:32:04;;;;;;;1.08;1.05;;;;;;;-3.46;100.00;101492.72;5029586;28;20508;-75
2024/01/11 07:34:30;;;;;;;0.45;0.45;;;;;;;-3.17;100.00;101504.22;5026417;28;20037;-74
2024/01/11 07:36:56;;;;;;;0.60;0.60;;;;;;;-3.28;100.00;101505.09;5024531;28;20126;-76
2024/01/11 07:39:22;;;;;;;0.40;0.40;;;;;;;-3.04;100.00;101498.31;5028884;28;20041;-74
2024/01/11 07:41:48;;;;;;;1.35;1.27;;;;;;;-3.64;100.00;101370.84;5030069;28;20079;-76
2024/01/11 07:44:14;;;;;;;0.70;0.70;;;;;;;-2.86;100.00;101483.31;5029515;28;20050;-75
2024/01/11 07:46:40;;;;;;;0.40;0.40;;;;;;;-2.99;100.00;101471.28;5027505;28;20064;-75
2024/01/11 07:49:06;;;;;;;0.40;0.40;;;;;;;-2.82;100.00;101490.47;5021506;28;20065;-74
2024/01/11 07:51:34;;;;;;;5.60;5.07;;;;;;;-2.90;100.00;101451.41;5029970;28;20463;-75
2024/01/11 07:54:00;;;;;;;2.55;2.45;;;;;;;-3.40;100.00;101356.31;5018801;28;20073;-75
2024/01/11 07:56:26;;;;;;;0.63;0.63;;;;;;;-2.54;100.00;101472.75;5032368;28;20139;-76
2024/01/11 07:58:52;;;;;;;1.42;1.33;;;;;;;-3.24;100.00;101343.78;5036501;28;20108;-75
2024/01/11 08:01:17;;;;;;;19.50;10.45;;;;;;;-2.60;100.00;101444.97;5027498;28;20037;-75
2024/01/11 08:03:47;;;;;;;0.60;0.60;;;;;;;-2.28;100.00;101463.38;5033449;28;20052;-75
2024/01/11 08:06:13;;;;;;;1.25;1.15;;;;;;;-2.96;100.00;101340.56;5028233;28;20052;-75
2024/01/11 08:08:41;;;;;;;1.80;1.70;;;;;;;-2.60;100.00;101375.59;5021038;28;20704;-74
2024/01/11 08:11:13;;;;;;;0.40;0.40;;;;;;;-2.17;100.00;101447.91;5025179;28;20056;-76
2024/01/11 08:13:38;;;;;;;1.02;1.02;;;;;;;-2.11;100.00;101452.53;5028226;28;20044;-74
2024/01/11 08:16:04;;;;;;;0.82;0.82;;;;;;;-2.29;100.00;101444.50;5025191;28;20042;-75
2024/01/11 08:18:33;;;;;;;0.30;0.30;;;;;;;-2.85;100.00;101339.63;5030291;28;20041;-74
2024/01/11 08:20:58;;;;;;;2.35;2.25;;;;;;;-2.01;100.00;101466.94;5014506;28;20526;-76
2024/01/11 08:23:24;;;;;;;0.47;0.47;;;;;;;-2.10;100.00;101436.34;5031513;28;20053;-75
2024/01/11 08:25:49;;;;;;;3.80;3.60;;;;;;;-2.36;100.00;101355.81;5039057;28;20060;-75
2024/01/11 08:28:15;;;;;;;2.17;2.05;;;;;;;-1.81;100.00;101468.25;5032718;28;20175;-75
2024/01/11 08:30:42;;;;;;;9.43;7.13;;;;;;;-1.83;100.00;101483.59;5037011;28;20523;-74
2024/01/11 08:33:08;;;;;;;0.73;0.73;;;;;;;-2.20;100.00;101367.09;5019413;28;20080;-75
2024/01/11 08:35:33;;;;;;;4.80;4.57;;;;;;;-1.72;100.00;101422.56;5040406;28;20037;-75
2024/01/11 08:37:59;;;;;;;0.88;0.88;;;;;;;-1.78;100.00;101430.78;5034174;28;20094;-76
2024/01/11 08:40:25;;;;;;;0.55;0.55;;;;;;;-2.27;100.00;101340.13;5033155;28;20800;-76
2024/01/11 08:42:50;;;;;;;0.30;0.30;;;;;;;-2.08;100.00;101319.06;5035106;28;20041;-75
2024/01/11 08:45:17;;;;;;;0.52;0.52;;;;;;;-1.34;100.00;101414.75;5023275;28;20042;-75
2024/01/11 08:47:46;;;;;;;12.68;10.52;;;;;;;-1.72;100.00;101330.84;5020136;28;20064;-74
2024/01/11 08:50:13;;;;;;;1.52;1.45;;;;;;;-1.72;100.00;101329.94;5010213;28;20512;-76
2024/01/11 08:52:40;;;;;;;5.82;5.45;;;;;;;-1.72;100.00;101324.81;5027691;28;20037;-75
2024/01/11 08:55:07;;;;;;;1.08;1.05;;;;;;;-1.65;100.00;101332.13;5014971;28;20707;-75
2024/01/11 08:57:32;;;;;;;0.32;0.32;;;;;;;-1.10;100.00;101425.72;5026678;28;20042;-74
2024/01/11 08:59:58;;;;;;;1.13;1.13;;;;;;;-1.28;100.00;101402.28;5027111;28;20750;-75
2024/01/11 09:02:23;;;;;;;0.40;0.40;;;;;;;-1.32;100.00;101391.69;5033585;28;20104;-76
2024/01/11 09:04:50;;;;;;;0.55;0.55;;;;;;;-1.65;100.00;101302.94;5033976;28;20036;-75
2024/01/11 09:07:16;;;;;;;0.65;0.65;;;;;;;-1.71;100.00;101285.41;5024463;28;20037;-74
2024/01/11 09:09:41;;;;;;;0.40;0.40;;;;;;;-0.97;100.00;101411.91;5028372;28;20158;-76
2024/01/11 09:12:07;;;;;;;0.40;0.40;;;;;;;-1.51;100.00;101304.69;5030960;28;20049;-74
2024/01/11 09:14:32;;;;;;;6.22;5.88;;;;;;;-0.82;100.00;101403.38;5028813;28;20401;-75
2024/01/11 09:16:58;;;;;;;0.35;0.35;;;;;;;-0.68;100.00;101405.09;5024300;28;20041;-76
2024/01/11 09:19:24;;;;;;;0.30;0.30;;;;;;;-0.68;100.00;101407.66;5018544;28;20029;-74
2024/01/11 09:21:49;;;;;;;0.50;0.50;;;;;;;-1.67;100.00;101247.91;5024394;28;20037;-76
2024/01/11 09:24:15;;;;;;;4.82;4.55;;;;;;;-0.59;100.00;101379.88;5023206;28;20092;-75
2024/01/11 09:26:40;;;;;;;2.50;2.40;;;;;;;-0.36;100.00;101382.97;5025744;28;20092;-75
2024/01/11 09:29:06;;;;;;;1.85;1.58;;;;;;;-0.75;100.00;101367.78;5028617;28;20158;-75
2024/01/11 09:31:31;;;;;;;8.63;8.18;;;;;;;-0.37;100.00;101366.63;5024384;28;20043;-75
2024/01/11 09:33:57;;;;;;;2.25;2.15;;;;;;;-1.10;100.00;101290.91;5023990;28;20547;-75
2024/01/11 09:36:22;;;;;;;2.60;2.50;;;;;;;-0.78;100.00;101336.66;5027412;28;20049;-74
2024/01/11 09:38:48;;;;;;;4.07;3.88;;;;;;;-0.69;100.00;101338.91;5027063;28;20040;-75
2024/01/11 09:41:14;;;;;;;0.73;0.73;;;;;;;-0.47;100.00;101347.13;5008841;28;20046;-74
2024/01/11 09:43:43;;;;;;;5.45;5.07;;;;;;;-0.48;100.00;101339.28;5031385;28;20063;-75
2024/01/11 09:46:10;;;;;;;0.40;0.40;;;;;;;-0.81;100.00;101223.13;5025200;28;20482;-74
2024/01/11 09:48:38;;;;;;;1.65;1.48;;;;;;;-0.60;100.00;101233.78;5018637;28;20524;-76
2024/01/11 09:51:10;;;;;;;1.35;1.25;;;;;;;-0.52;100.00;101234.22;5021582;28;20108;-75
2024/01/11 09:53:38;;;;;;;19.33;13.60;;;;;;;-0.04;100.00;101295.47;5029897;28;20623;-75
2024/01/11 09:56:08;;;;;;;21.63;19.38;;;;;;;0.06;100.00;101317.50;5031356;28;20081;-75
2024/01/11 09:58:38;;;;;;;2.35;2.25;;;;;;;-0.13;100.00;101269.16;5031799;28;21438;-74
2024/01/11 10:01:10;;;;;;;0.77;0.77;;;;;;;0.38;100.00;101290.94;5029869;28;20045;-75
2024/01/11 10:03:36;;;;;;;2.40;2.30;;;;;;;0.10;100.00;101264.41;5031303;28;20065;-74
2024/01/11 10:06:03;;;;;;;1.13;1.10;;;;;;;-0.15;100.00;101211.41;5028774;28;20037;-75
2024/01/11 10:08:31;;;;;;;4.82;4.57;;;;;;;0.55;100.00;101270.31;5032329;28;20037;-74
2024/01/11 10:10:57;;;;;;;9.35;8.60;;;;;;;-0.04;100.00;101179.38;5033440;28;20075;-76
2024/01/11 10:13:28;;;;;;;9.93;9.27;;;;;;;0.54;100.00;101253.03;5032097;28;20033;-75
2024/01/11 10:16:13;;;;;;;12.20;8.60;;;;;;;0.54;100.00;101256.53;5035938;28;20037;-75
2024/01/11 10:18:39;;;;;;;1.55;0.82;;;;;;;0.13;100.00;101140.72;5026983;28;20076;-75
2024/01/11 10:21:05;;;;;;;3.50;3.25;;;;;;;0.24;100.00;101144.75;5032199;28;20075;-76
2024/01/11 10:23:33;;;;;;;0.47;0.47;;;;;;;0.74;100.00;101243.78;5033836;28;20112;-74
2024/01/11 10:25:59;;;;;;;5.60;5.30;;;;;;;0.52;100.00;101198.75;5032917;28;20473;-75
2024/01/11 10:28:26;;;;;;;1.48;1.42;;;;;;;0.19;100.00;101105.81;5032771;28;20702;-76
2024/01/11 10:30:53;;;;;;;1.95;1.85;;;;;;;0.94;100.00;101206.09;5039018;28;20106;-75
2024/01/11 10:33:22;;;;;;;0.98;0.98;;;;;;;1.16;100.00;101216.69;5025952;28;20544;-74
2024/01/11 10:35:49;;;;;;;2.78;2.67;;;;;;;0.92;99.55;101172.41;5036779;28;20042;-74
2024/01/11 10:38:16;;;;;;;0.70;0.70;;;;;;;1.03;95.55;101172.94;5026970;28;20045;-76
2024/01/11 10:40:42;;;;;;;0.75;0.75;;;;;;;1.08;92.04;101194.75;5029079;28;20033;-75
2024/01/11 10:43:12;;;;;;;2.05;1.95;;;;;;;1.36;89.87;101194.44;5030466;28;20045;-74
2024/01/11 10:45:41;;;;;;;0.30;0.30;;;;;;;1.00;86.12;101167.63;5028408;28;20882;-76
2024/01/11 10:48:16;;;;;;;1.40;1.33;;;;;;;1.34;81.58;101184.84;5031962;28;20515;-75
2024/01/11 10:50:46;;;;;;;1.33;1.30;;;;;;;1.80;80.00;101182.78;5030452;28;20045;-75
2024/01/11 10:53:37;;;;;;;2.00;1.90;;;;;;;1.16;76.54;101084.88;5037127;28;20042;-75
2024/01/11 10:56:04;;;;;;;0.77;0.77;;;;;;;1.37;74.12;101077.25;5021962;28;20437;-75
2024/01/11 10:58:31;;;;;;;0.40;0.40;;;;;;;1.41;69.06;101050.75;5029568;28;20243;-76
2024/01/11 11:00:59;;;;;;;0.30;0.30;;;;;;;1.74;65.48;101060.91;5036325;28;20049;-76
2024/01/11 11:03:31;;;;;;;0.73;0.73;;;;;;;2.45;65.72;101121.00;5025815;28;20448;-76
2024/01/11 11:05:58;;;;;;;2.22;2.13;;;;;;;1.93;66.06;101048.81;5033936;28;20038;-76
2024/01/11 11:08:26;;;;;;;0.35;0.35;;;;;;;2.01;66.62;100962.91;5028134;28;20470;-75
2024/01/11 11:11:00;;;;;;;0.40;0.40;;;;;;;2.44;63.91;101098.53;5027120;28;20112;-75
2024/01/11 11:13:27;;;;;;;0.60;0.60;;;;;;;2.78;66.74;101062.00;5034202;28;20124;-73